createdAt,value
2018-02-24T00:02:21.603Z,13.23
2018-02-24T00:04:49.028Z,14.95
2018-02-24T00:07:17.476Z,14.15
2018-02-24T00:09:45.680Z,15.10
2018-02-24T00:12:13.592Z,14.05
2018-02-24T00:14:41.034Z,15.35
2018-02-24T00:17:08.479Z,15.20
2018-02-24T00:19:35.911Z,13.80
2018-02-24T00:22:03.381Z,15.48
2018-02-24T00:24:30.818Z,14.45
2018-02-24T00:26:58.387Z,15.10
2018-02-24T00:29:25.920Z,16.02
2018-02-24T00:31:54.125Z,14.43
2018-02-24T00:34:21.582Z,14.43
2018-02-24T00:36:49.049Z,14.90
2018-02-24T00:39:17.280Z,14.15
2018-02-24T00:41:46.025Z,15.52
2018-02-24T00:44:13.467Z,14.00
2018-02-24T00:46:40.924Z,13.73
2018-02-24T00:49:08.572Z,15.25
2018-02-24T00:51:36.016Z,15.50
2018-02-24T00:54:04.242Z,15.80
2018-02-24T00:56:31.721Z,14.82
2018-02-24T00:58:59.152Z,14.05
2018-02-24T01:01:26.686Z,13.13
2018-02-24T01:03:54.123Z,13.57
2018-02-24T01:06:22.347Z,15.05
2018-02-24T01:08:50.562Z,14.23
2018-02-24T01:11:18.792Z,13.25
2018-02-24T01:13:46.224Z,14.80
2018-02-24T01:16:13.884Z,13.60
2018-02-24T01:18:41.324Z,14.00
2018-02-24T01:21:09.589Z,12.50
2018-02-24T01:23:37.008Z,13.38
2018-02-24T01:26:20.353Z,12.60
2018-02-24T01:28:47.798Z,12.73
2018-02-24T01:31:20.691Z,13.95
2018-02-24T01:33:48.138Z,12.10
2018-02-24T01:36:15.571Z,12.55
2018-02-24T01:38:43.032Z,12.60
2018-02-24T01:41:10.501Z,12.10
2018-02-24T01:43:37.970Z,12.25
2018-02-24T01:46:05.404Z,12.98
2018-02-24T01:48:33.768Z,11.65
2018-02-24T01:51:07.344Z,11.45
2018-02-24T01:53:35.543Z,11.70
2018-02-24T01:56:03.005Z,12.32
2018-02-24T01:58:30.506Z,12.35
2018-02-24T02:00:57.949Z,11.48
2018-02-24T02:03:25.387Z,11.45
2018-02-24T02:05:52.917Z,12.25
2018-02-24T02:08:21.140Z,12.13
2018-02-24T02:10:48.584Z,12.55
2018-02-24T02:13:16.049Z,11.35
2018-02-24T02:15:43.517Z,10.95
2018-02-24T02:18:10.962Z,11.95
2018-02-24T02:20:38.472Z,11.25
2018-02-24T02:23:06.678Z,10.38
2018-02-24T02:25:34.152Z,11.40
2018-02-24T02:28:01.611Z,11.75
2018-02-24T02:30:29.133Z,10.65
2018-02-24T02:32:57.341Z,11.90
2018-02-24T02:35:24.892Z,11.23
2018-02-24T02:37:52.336Z,11.52
2018-02-24T02:40:19.828Z,10.57
2018-02-24T02:42:47.270Z,11.20
2018-02-24T02:45:16.753Z,11.25
2018-02-24T02:47:44.197Z,10.60
2018-02-24T02:50:12.403Z,11.00
2018-02-24T02:52:39.920Z,10.90
2018-02-24T02:55:08.157Z,10.23
2018-02-24T02:57:35.593Z,10.80
2018-02-24T03:00:03.146Z,11.52
2018-02-24T03:02:30.617Z,10.25
2018-02-24T03:04:58.065Z,11.25
2018-02-24T03:07:25.754Z,9.80
2018-02-24T03:09:53.201Z,10.85
2018-02-24T03:12:21.608Z,11.43
2018-02-24T03:14:49.072Z,10.70
2018-02-24T03:17:16.533Z,10.50
2018-02-24T03:19:43.975Z,10.05
2018-02-24T03:22:11.421Z,10.18
2018-02-24T03:24:39.041Z,10.15
2018-02-24T03:27:06.481Z,9.73
2018-02-24T03:29:34.680Z,10.05
2018-02-24T03:32:02.153Z,9.93
2018-02-24T03:34:29.617Z,10.23
2018-02-24T03:36:57.052Z,9.93
2018-02-24T03:39:24.651Z,9.50
2018-02-24T03:41:52.140Z,10.13
2018-02-24T03:44:20.353Z,10.45
2018-02-24T03:46:50.852Z,9.60
2018-02-24T03:49:19.169Z,9.75
2018-02-24T03:51:47.403Z,9.80
2018-02-24T03:54:15.601Z,9.82
2018-02-24T03:56:43.197Z,10.30
2018-02-24T03:59:10.637Z,9.23
2018-02-24T04:01:38.861Z,9.18
2018-02-24T04:04:06.292Z,9.05
2018-02-24T04:06:33.757Z,9.68
2018-02-24T04:09:01.201Z,8.80
2018-02-24T04:11:28.636Z,9.27
2018-02-24T04:13:56.411Z,9.30
2018-02-24T04:16:23.872Z,9.88
2018-02-24T04:18:51.321Z,9.40
2018-02-24T04:21:18.756Z,10.20
2018-02-24T04:23:46.212Z,9.90
2018-02-24T04:26:13.649Z,9.35
2018-02-24T04:28:41.959Z,9.32
2018-02-24T04:31:09.381Z,9.50
2018-02-24T04:33:37.623Z,8.77
2018-02-24T04:36:17.144Z,10.50
2018-02-24T04:38:44.645Z,10.23
2018-02-24T04:41:12.072Z,9.45
2018-02-24T04:43:39.509Z,9.27
2018-02-24T04:46:07.173Z,9.40
2018-02-24T04:48:34.616Z,9.50
2018-02-24T04:51:02.077Z,9.38
2018-02-24T04:53:29.516Z,9.95
2018-02-24T04:55:57.762Z,9.50
2018-02-24T04:58:25.205Z,9.70
2018-02-24T05:00:52.664Z,10.07
2018-02-24T05:03:20.181Z,8.95
2018-02-24T05:05:47.713Z,9.55
2018-02-24T05:08:15.924Z,10.35
2018-02-24T05:10:43.365Z,10.30
2018-02-24T05:13:10.829Z,9.95
2018-02-24T05:15:38.397Z,10.07
2018-02-24T05:18:05.856Z,9.60
2018-02-24T05:20:33.294Z,10.38
2018-02-24T05:23:01.524Z,10.43
2018-02-24T05:25:28.961Z,9.43
2018-02-24T05:27:56.442Z,10.02
2018-02-24T05:30:23.885Z,9.63
2018-02-24T05:32:51.529Z,10.50
2018-02-24T05:35:18.961Z,9.00
2018-02-24T05:37:46.400Z,10.75
2018-02-24T05:40:14.641Z,10.32
2018-02-24T05:42:42.076Z,10.52
2018-02-24T05:45:09.513Z,9.50
2018-02-24T05:47:36.971Z,10.48
2018-02-24T05:50:09.415Z,10.02
2018-02-24T05:52:37.620Z,10.25
2018-02-24T05:55:05.420Z,9.68
2018-02-24T05:57:32.883Z,11.12
2018-02-24T06:00:00.304Z,10.20
2018-02-24T06:02:27.773Z,10.13
2018-02-24T06:04:55.369Z,10.40
2018-02-24T06:07:32.876Z,11.68
2018-02-24T06:10:00.316Z,10.27
2018-02-24T06:12:27.756Z,10.57
2018-02-24T06:14:55.199Z,9.35
2018-02-24T06:17:22.756Z,9.00
2018-02-24T06:19:50.192Z,9.10
2018-02-24T06:22:18.388Z,9.57
2018-02-24T06:24:54.968Z,9.23
2018-02-24T06:27:22.434Z,9.20
2018-02-24T06:29:51.166Z,9.18
2018-02-24T06:32:19.409Z,9.63
2018-02-24T06:34:46.849Z,8.60
2018-02-24T06:37:17.089Z,8.40
2018-02-24T06:39:44.520Z,9.27
2018-02-24T06:42:11.975Z,8.30
2018-02-24T06:44:39.439Z,9.20
2018-02-24T06:47:06.895Z,8.63
2018-02-24T06:49:35.673Z,8.73
2018-02-24T06:52:03.115Z,8.48
2018-02-24T06:54:30.720Z,8.60
2018-02-24T06:57:04.277Z,7.90
2018-02-24T06:59:31.696Z,8.23
2018-02-24T07:01:59.138Z,8.45
2018-02-24T07:04:26.577Z,8.93
2018-02-24T07:06:54.046Z,8.07
2018-02-24T07:09:21.728Z,9.10
2018-02-24T07:11:56.836Z,8.63
2018-02-24T07:14:24.312Z,9.60
2018-02-24T07:16:51.748Z,8.75
2018-02-24T07:19:21.689Z,8.80
2018-02-24T07:21:49.133Z,8.35
2018-02-24T07:24:16.997Z,8.82
2018-02-24T07:26:44.444Z,8.45
2018-02-24T07:29:11.894Z,8.27
2018-02-24T07:31:39.362Z,7.80
2018-02-24T07:34:06.793Z,7.90
2018-02-24T07:36:34.594Z,6.55
2018-02-24T07:39:02.133Z,8.23
2018-02-24T07:41:29.565Z,12.35
2018-02-24T07:43:57.889Z,7.70
2018-02-24T07:46:25.329Z,7.85
2018-02-24T07:48:52.799Z,7.85
2018-02-24T07:51:20.292Z,7.70
2018-02-24T07:53:47.860Z,7.90
2018-02-24T07:56:15.293Z,8.65
2018-02-24T07:58:42.745Z,8.40
2018-02-24T08:01:10.294Z,8.35
2018-02-24T08:03:37.811Z,7.68
2018-02-24T08:06:06.968Z,8.07
2018-02-24T08:08:34.434Z,7.62
2018-02-24T08:11:01.930Z,6.85
2018-02-24T08:13:31.208Z,8.35
2018-02-24T08:15:59.442Z,7.32
2018-02-24T08:18:26.878Z,7.75
2018-02-24T08:20:54.344Z,7.85
2018-02-24T08:23:21.784Z,7.05
2018-02-24T08:25:49.315Z,7.20
2018-02-24T08:28:17.524Z,7.40
2018-02-24T08:30:45.153Z,7.95
2018-02-24T08:33:13.359Z,6.60
2018-02-24T08:35:40.832Z,8.27
2018-02-24T08:38:08.289Z,7.68
2018-02-24T08:40:36.718Z,7.45
2018-02-24T08:43:04.199Z,8.98
2018-02-24T08:45:32.623Z,7.15
2018-02-24T08:48:00.069Z,7.85
2018-02-24T08:50:27.544Z,9.60
2018-02-24T08:52:54.991Z,7.35
2018-02-24T08:55:23.422Z,6.70
2018-02-24T08:57:52.596Z,7.62
2018-02-24T09:00:20.043Z,7.43
2018-02-24T09:02:47.531Z,7.18
2018-02-24T09:05:15.733Z,7.12
2018-02-24T09:07:43.199Z,7.87
2018-02-24T09:10:10.656Z,7.25
2018-02-24T09:12:38.092Z,7.62
2018-02-24T09:15:05.557Z,6.93
2018-02-24T09:17:33.057Z,8.25
2018-02-24T09:20:00.691Z,6.75
2018-02-24T09:22:28.155Z,6.18
2018-02-24T09:24:58.654Z,7.28
2018-02-24T09:27:26.199Z,6.12
2018-02-24T09:29:57.497Z,6.75
2018-02-24T09:32:24.916Z,6.78
2018-02-24T09:34:52.401Z,7.60
2018-02-24T09:37:20.048Z,7.25
2018-02-24T09:39:47.832Z,7.40
2018-02-24T09:42:27.581Z,6.55
2018-02-24T09:44:55.456Z,7.20
2018-02-24T09:47:22.893Z,6.35
2018-02-24T09:49:52.224Z,6.18
2018-02-24T09:52:19.736Z,6.10
2018-02-24T09:54:47.176Z,10.90
2018-02-24T09:57:21.502Z,7.78
2018-02-24T09:59:49.728Z,6.70
2018-02-24T10:02:17.164Z,8.18
2018-02-24T10:04:44.668Z,7.15
2018-02-24T10:07:12.105Z,7.57
2018-02-24T10:09:39.651Z,7.75
2018-02-24T10:12:10.127Z,8.30
2018-02-24T10:14:38.359Z,6.43
2018-02-24T10:17:07.742Z,6.68
2018-02-24T10:19:35.243Z,6.32
2018-02-24T10:22:02.692Z,7.65
2018-02-24T10:24:30.150Z,6.87
2018-02-24T10:26:59.014Z,6.90
2018-02-24T10:29:26.486Z,5.62
2018-02-24T10:31:53.939Z,6.37
2018-02-24T10:34:22.935Z,6.35
2018-02-24T10:36:51.346Z,7.45
2018-02-24T10:39:18.780Z,8.27
2018-02-24T10:41:46.689Z,6.53
2018-02-24T10:44:14.306Z,7.30
2018-02-24T10:46:41.748Z,6.78
2018-02-24T10:49:13.848Z,6.75
2018-02-24T10:51:42.249Z,6.70
2018-02-24T10:54:10.505Z,7.65
2018-02-24T10:56:37.938Z,6.65
2018-02-24T10:59:05.377Z,6.28
2018-02-24T11:01:32.913Z,7.00
2018-02-24T11:04:00.379Z,5.70
2018-02-24T11:06:27.823Z,7.70
2018-02-24T11:08:56.057Z,7.05
2018-02-24T11:11:23.505Z,7.12
2018-02-24T11:13:51.041Z,6.65
2018-02-24T11:16:18.451Z,6.53
2018-02-24T11:18:46.667Z,6.57
2018-02-24T11:21:14.118Z,6.87
2018-02-24T11:23:41.589Z,6.93
2018-02-24T11:26:09.024Z,6.60
2018-02-24T11:28:36.825Z,6.35
2018-02-24T11:31:06.886Z,6.87
2018-02-24T11:33:35.107Z,6.07
2018-02-24T11:36:02.572Z,6.75
2018-02-24T11:38:29.993Z,7.03
2018-02-24T11:40:58.220Z,6.55
2018-02-24T11:43:25.658Z,6.70
2018-02-24T11:45:53.213Z,6.82
2018-02-24T11:48:21.410Z,6.12
2018-02-24T11:50:48.872Z,6.43
2018-02-24T11:53:16.381Z,7.32
2018-02-24T11:55:45.535Z,8.05
2018-02-24T11:58:13.005Z,9.18
2018-02-24T12:00:40.445Z,8.82
2018-02-24T12:03:07.943Z,8.32
2018-02-24T12:05:36.132Z,8.77
2018-02-24T12:08:03.603Z,9.77
2018-02-24T12:10:31.053Z,8.52
2018-02-24T12:12:59.265Z,8.40
2018-02-24T12:15:26.704Z,9.35
2018-02-24T12:17:55.269Z,8.25
2018-02-24T12:20:22.704Z,8.15
2018-02-24T12:22:50.934Z,8.43
2018-02-24T12:25:19.624Z,7.55
2018-02-24T12:27:47.073Z,7.68
2018-02-24T12:30:14.578Z,7.50
2018-02-24T12:32:42.842Z,7.85
2018-02-24T12:35:11.405Z,6.72
2018-02-24T12:37:39.610Z,7.72
2018-02-24T12:40:07.811Z,8.35
2018-02-24T12:42:35.608Z,7.87
2018-02-24T12:45:03.047Z,7.80
2018-02-24T12:47:30.476Z,7.55
2018-02-24T12:49:57.934Z,7.37
2018-02-24T12:52:27.098Z,7.20
2018-02-24T12:54:54.542Z,7.68
2018-02-24T12:57:21.988Z,7.53
2018-02-24T12:59:49.493Z,7.70
2018-02-24T13:02:20.717Z,6.90
2018-02-24T13:04:48.149Z,8.05
2018-02-24T13:07:15.617Z,7.90
2018-02-24T13:09:43.208Z,7.12
2018-02-24T13:12:18.892Z,7.12
2018-02-24T13:14:46.349Z,6.80
2018-02-24T13:17:13.775Z,7.18
2018-02-24T13:19:42.625Z,7.55
2018-02-24T13:22:10.063Z,7.82
2018-02-24T13:24:37.562Z,7.30
2018-02-24T13:27:06.973Z,7.53
2018-02-24T13:29:34.449Z,6.53
2018-02-24T13:32:02.741Z,6.30
2018-02-24T13:34:30.188Z,7.15
2018-02-24T13:36:58.413Z,6.22
2018-02-24T13:39:25.849Z,5.53
2018-02-24T13:41:53.777Z,6.25
2018-02-24T13:44:21.982Z,6.25
2018-02-24T13:46:49.417Z,6.18
2018-02-24T13:49:17.648Z,5.20
2018-02-24T13:51:46.269Z,5.40
2018-02-24T13:54:14.484Z,5.22
2018-02-24T13:56:41.954Z,5.35
2018-02-24T13:59:09.501Z,5.10
2018-02-24T14:01:36.936Z,5.75
2018-02-24T14:04:04.369Z,4.65
2018-02-24T14:06:31.834Z,5.62
2018-02-24T14:09:00.169Z,5.15
2018-02-24T14:11:27.597Z,5.05
2018-02-24T14:13:55.048Z,5.32
2018-02-24T14:16:23.912Z,5.20
2018-02-24T14:18:51.346Z,4.60
2018-02-24T14:21:18.806Z,4.85
2018-02-24T14:23:46.241Z,4.93
2018-02-24T14:26:13.683Z,4.60
2018-02-24T14:28:41.261Z,4.93
2018-02-24T14:31:08.758Z,4.10
2018-02-24T14:33:36.321Z,4.45
2018-02-24T14:36:04.512Z,4.72
2018-02-24T14:38:32.742Z,4.93
2018-02-24T14:41:00.206Z,5.82
2018-02-24T14:43:27.629Z,4.85
2018-02-24T14:45:55.104Z,5.10
2018-02-24T14:48:22.553Z,4.47
2018-02-24T14:50:50.015Z,5.75
2018-02-24T14:53:18.229Z,4.72
2018-02-24T14:55:45.657Z,5.62
2018-02-24T14:58:13.142Z,5.32
2018-02-24T15:00:40.577Z,6.05
2018-02-24T15:03:08.015Z,6.00
2018-02-24T15:05:35.532Z,5.25
2018-02-24T15:08:03.774Z,5.50
2018-02-24T15:10:31.201Z,5.70
2018-02-24T15:12:58.664Z,5.95
2018-02-24T15:15:26.114Z,6.05
2018-02-24T15:17:53.700Z,6.50
2018-02-24T15:20:21.140Z,6.15
2018-02-24T15:22:48.572Z,6.03
2018-02-24T15:25:16.469Z,5.60
2018-02-24T15:27:52.741Z,6.22
2018-02-24T15:30:20.349Z,6.28
2018-02-24T15:32:48.561Z,7.00
2018-02-24T15:35:15.988Z,5.47
2018-02-24T15:37:43.534Z,6.80
2018-02-24T15:40:11.738Z,6.30
2018-02-24T15:42:39.186Z,6.45
2018-02-24T15:45:06.627Z,6.45
2018-02-24T15:47:36.816Z,6.37
2018-02-24T15:50:04.260Z,7.10
2018-02-24T15:52:32.124Z,7.00
2018-02-24T15:54:59.556Z,6.82
2018-02-24T15:57:27.007Z,7.03
2018-02-24T15:59:54.471Z,6.95
2018-02-24T16:02:21.941Z,6.97
2018-02-24T16:04:50.147Z,6.75
2018-02-24T16:07:17.585Z,7.30
2018-02-24T16:09:45.019Z,8.40
2018-02-24T16:12:12.649Z,7.72
2018-02-24T16:14:41.008Z,8.27
2018-02-24T16:17:08.461Z,7.72
2018-02-24T16:19:35.894Z,7.78
2018-02-24T16:22:03.380Z,8.80
2018-02-24T16:24:30.828Z,8.20
2018-02-24T16:26:58.681Z,8.18
2018-02-24T16:29:26.119Z,8.73
2018-02-24T16:31:53.589Z,10.30
2018-02-24T16:34:21.038Z,10.32
2018-02-24T16:36:51.684Z,8.32
2018-02-24T16:39:19.125Z,7.50
2018-02-24T16:41:46.581Z,10.35
2018-02-24T16:44:14.156Z,10.88
2018-02-24T16:46:41.600Z,7.95
2018-02-24T16:49:09.093Z,10.90
2018-02-24T16:51:36.537Z,9.60
2018-02-24T16:54:04.129Z,10.38
2018-02-24T16:56:31.605Z,9.40
2018-02-24T16:58:59.805Z,9.40
2018-02-24T17:01:28.018Z,10.52
2018-02-24T17:03:55.541Z,11.88
2018-02-24T17:06:22.991Z,11.63
2018-02-24T17:08:51.218Z,8.75
2018-02-24T17:11:18.657Z,9.60
2018-02-24T17:13:46.117Z,7.35
2018-02-24T17:16:13.557Z,7.90
2018-02-24T17:18:41.069Z,8.48
2018-02-24T17:21:09.303Z,9.05
2018-02-24T17:23:36.743Z,7.95
2018-02-24T17:26:04.204Z,8.90
2018-02-24T17:28:31.714Z,7.30
2018-02-24T17:31:00.093Z,7.87
2018-02-24T17:33:28.456Z,7.72
2018-02-24T17:35:55.885Z,7.82
2018-02-24T17:38:23.360Z,8.55
2018-02-24T17:40:50.785Z,7.30
2018-02-24T17:43:18.253Z,7.78
2018-02-24T17:45:45.697Z,7.22
2018-02-24T17:48:13.233Z,7.40
2018-02-24T17:50:40.684Z,7.80
2018-02-24T17:53:08.901Z,7.00
2018-02-24T17:55:36.344Z,8.60
2018-02-24T17:58:03.804Z,7.45
2018-02-24T18:00:31.238Z,7.65
2018-02-24T18:02:59.569Z,7.90
2018-02-24T18:05:27.077Z,6.80
2018-02-24T18:07:55.280Z,6.95
2018-02-24T18:10:22.736Z,7.62
2018-02-24T18:12:50.211Z,10.70
2018-02-24T18:15:18.625Z,6.65
2018-02-24T18:17:46.957Z,7.30
2018-02-24T18:20:14.394Z,7.20
2018-02-24T18:22:41.865Z,7.40
2018-02-24T18:25:09.417Z,6.10
2018-02-24T18:27:37.850Z,6.43
2018-02-24T18:30:05.521Z,8.93
2018-02-24T18:32:33.812Z,9.00
2018-02-24T18:35:01.192Z,5.90
2018-02-24T18:37:28.893Z,7.10
2018-02-24T18:39:56.338Z,6.20
2018-02-24T18:42:23.772Z,6.47
2018-02-24T18:44:51.272Z,6.85
2018-02-24T18:47:18.735Z,6.93
2018-02-24T18:49:55.161Z,6.78
2018-02-24T18:52:22.642Z,4.80
2018-02-24T18:54:50.075Z,6.95
2018-02-24T18:57:17.559Z,5.50
2018-02-24T18:59:57.778Z,5.93
2018-02-24T19:02:25.249Z,4.60
2018-02-24T19:04:52.687Z,4.57
2018-02-24T19:07:20.200Z,4.62
2018-02-24T19:09:47.636Z,4.82
2018-02-24T19:12:15.108Z,3.97
2018-02-24T19:14:42.539Z,5.50
2018-02-24T19:17:10.045Z,6.68
2018-02-24T19:19:37.502Z,4.18
2018-02-24T19:22:04.942Z,3.97
2018-02-24T19:24:32.430Z,3.80
2018-02-24T19:27:09.745Z,4.62
2018-02-24T19:29:37.188Z,4.00
2018-02-24T19:32:05.471Z,3.20
2018-02-24T19:34:34.826Z,3.47
2018-02-24T19:37:03.028Z,3.20
2018-02-24T19:39:31.336Z,3.45
2018-02-24T19:41:58.777Z,4.37
2018-02-24T19:44:26.243Z,3.40
2018-02-24T19:46:54.091Z,3.95
2018-02-24T19:49:21.523Z,3.60
2018-02-24T19:51:53.949Z,4.15
2018-02-24T19:54:21.390Z,5.57
2018-02-24T19:56:50.336Z,4.87
2018-02-24T19:59:17.789Z,7.22
2018-02-24T20:01:45.653Z,5.60
2018-02-24T20:04:13.094Z,7.10
2018-02-24T20:06:40.557Z,6.03
2018-02-24T20:09:08.030Z,9.40
2018-02-24T20:11:36.808Z,10.45
2018-02-24T20:14:04.257Z,10.85
2018-02-24T20:16:39.697Z,6.43
2018-02-24T20:19:07.125Z,4.90
2018-02-24T20:21:34.565Z,7.78
2018-02-24T20:24:02.795Z,6.03
2018-02-24T20:26:30.231Z,5.55
2018-02-24T20:28:57.801Z,7.43
2018-02-24T20:31:25.245Z,4.95
2018-02-24T20:33:52.718Z,8.57
2018-02-24T20:36:20.168Z,4.87
2018-02-24T20:38:47.630Z,4.65
2018-02-24T20:41:16.002Z,4.00
2018-02-24T20:43:43.437Z,4.40
2018-02-24T20:46:10.909Z,3.30
2018-02-24T20:48:38.348Z,5.22
2018-02-24T20:51:06.577Z,3.90
2018-02-24T20:53:34.110Z,5.95
2018-02-24T20:56:01.674Z,5.37
2018-02-24T20:58:29.120Z,3.90
2018-02-24T21:01:02.698Z,5.18
2018-02-24T21:03:30.901Z,3.80
2018-02-24T21:05:58.340Z,3.58
2018-02-24T21:08:25.814Z,4.10
2018-02-24T21:10:53.443Z,4.22
2018-02-24T21:13:21.653Z,3.20
2018-02-24T21:15:49.112Z,4.25
2018-02-24T21:18:16.585Z,4.37
2018-02-24T21:20:44.042Z,4.10
2018-02-24T21:23:11.482Z,4.00
2018-02-24T21:25:38.949Z,3.62
2018-02-24T21:28:06.385Z,4.47
2018-02-24T21:30:34.100Z,4.45
2018-02-24T21:33:01.536Z,3.60
2018-02-24T21:35:29.009Z,4.12
2018-02-24T21:37:56.440Z,4.28
2018-02-24T21:40:24.877Z,5.10
2018-02-24T21:42:53.089Z,3.80
2018-02-24T21:45:20.684Z,4.20
2018-02-24T21:47:48.116Z,5.00
2018-02-24T21:50:20.205Z,3.90
2018-02-24T21:52:47.646Z,4.10
2018-02-24T21:55:17.287Z,4.32
2018-02-24T21:57:44.728Z,4.03
2018-02-24T22:00:12.388Z,4.50
2018-02-24T22:02:39.829Z,3.95
2018-02-24T22:05:07.305Z,8.15
2018-02-24T22:07:34.740Z,4.10
2018-02-24T22:10:03.170Z,3.75
2018-02-24T22:12:31.378Z,4.10
2018-02-24T22:14:58.971Z,4.10
2018-02-24T22:17:26.409Z,3.95
2018-02-24T22:19:53.896Z,4.30
2018-02-24T22:22:21.336Z,4.22
2018-02-24T22:24:48.780Z,3.90
2018-02-24T22:27:16.572Z,4.12
2018-02-24T22:29:44.014Z,4.20
2018-02-24T22:32:11.451Z,4.05
2018-02-24T22:34:38.941Z,3.78
2018-02-24T22:37:06.376Z,3.28
2018-02-24T22:39:33.845Z,3.87
2018-02-24T22:42:01.309Z,3.85
2018-02-24T22:44:28.753Z,4.28
2018-02-24T22:46:56.216Z,3.65
2018-02-24T22:49:23.818Z,3.55
2018-02-24T22:51:52.208Z,3.70
2018-02-24T22:54:20.422Z,3.60
2018-02-24T22:56:48.629Z,3.83
2018-02-24T22:59:16.093Z,3.85
2018-02-24T23:01:43.526Z,3.25
2018-02-24T23:04:11.008Z,3.78
2018-02-24T23:06:38.440Z,4.10
2018-02-24T23:09:08.888Z,4.00
2018-02-24T23:11:36.424Z,3.25
2018-02-24T23:14:03.917Z,3.80
2018-02-24T23:16:31.348Z,3.50
2018-02-24T23:18:58.780Z,3.45
2018-02-24T23:21:26.268Z,3.87
2018-02-24T23:23:53.713Z,4.00
2018-02-24T23:26:21.209Z,3.70
2018-02-24T23:28:49.464Z,3.62
2018-02-24T23:31:16.899Z,4.00
2018-02-24T23:33:44.384Z,3.70
2018-02-24T23:36:11.827Z,3.40
2018-02-24T23:38:39.265Z,4.10
2018-02-24T23:41:06.758Z,3.53
2018-02-24T23:43:34.217Z,3.45
2018-02-24T23:46:01.661Z,2.87
2018-02-24T23:48:29.173Z,3.80
2018-02-24T23:50:56.607Z,4.28
2018-02-24T23:53:24.825Z,4.37
2018-02-24T23:55:56.176Z,4.10
2018-02-24T23:58:23.615Z,3.80
